createdAt,value
2018-06-09T00:01:06.874Z,4.00
2018-06-09T00:02:06.768Z,4.00
2018-06-09T00:04:01.213Z,4.00
2018-06-09T00:05:01.145Z,4.00
2018-06-09T00:06:55.618Z,4.00
2018-06-09T00:07:55.525Z,4.00
2018-06-09T00:09:49.905Z,4.00
2018-06-09T00:10:49.905Z,8.00
2018-06-09T00:12:44.461Z,4.00
2018-06-09T00:13:44.297Z,4.00
2018-06-09T00:15:38.821Z,4.00
2018-06-09T00:16:38.710Z,4.00
2018-06-09T00:18:33.071Z,4.00
2018-06-09T00:19:33.103Z,4.00
2018-06-09T00:21:28.433Z,4.00
2018-06-09T00:22:27.460Z,4.00
2018-06-09T00:24:21.835Z,4.00
2018-06-09T00:25:21.839Z,4.00
2018-06-09T00:27:16.677Z,4.00
2018-06-09T00:28:16.233Z,4.00
2018-06-09T00:30:10.596Z,4.00
2018-06-09T00:31:10.596Z,4.00
2018-06-09T00:33:05.100Z,4.00
2018-06-09T00:34:04.981Z,4.00
2018-06-09T00:35:59.356Z,4.00
2018-06-09T00:36:59.357Z,4.00
2018-06-09T00:38:53.787Z,4.00
2018-06-09T00:39:53.742Z,4.00
2018-06-09T00:41:48.223Z,4.00
2018-06-09T00:42:48.165Z,4.00
2018-06-09T00:44:42.527Z,4.00
2018-06-09T00:45:42.529Z,4.00
2018-06-09T00:47:37.037Z,4.00
2018-06-09T00:48:36.911Z,4.00
2018-06-09T00:50:31.309Z,4.00
2018-06-09T00:51:31.296Z,4.00
2018-06-09T00:53:25.746Z,4.00
2018-06-09T00:54:25.704Z,4.00
2018-06-09T00:56:20.084Z,8.00
2018-06-09T00:57:21.074Z,4.00
2018-06-09T00:59:15.976Z,4.00
2018-06-09T01:00:14.513Z,4.00
2018-06-09T01:02:08.951Z,4.00
2018-06-09T01:03:08.958Z,4.00
2018-06-09T01:05:04.494Z,4.00
2018-06-09T01:06:03.289Z,4.00
2018-06-09T01:07:57.793Z,4.00
2018-06-09T01:08:58.678Z,4.00
2018-06-09T01:10:53.081Z,4.00
2018-06-09T01:11:53.061Z,4.00
2018-06-09T01:13:47.505Z,4.00
2018-06-09T01:14:46.658Z,4.00
2018-06-09T01:16:41.564Z,4.00
2018-06-09T01:17:41.086Z,4.00
2018-06-09T01:19:35.534Z,4.00
2018-06-09T01:20:37.112Z,8.00
2018-06-09T01:22:30.680Z,4.00
2018-06-09T01:23:29.714Z,4.00
2018-06-09T01:25:24.201Z,4.00
2018-06-09T01:26:24.097Z,4.00
2018-06-09T01:28:18.531Z,4.00
2018-06-09T01:29:18.483Z,8.00
2018-06-09T01:31:12.866Z,4.00
2018-06-09T01:32:12.868Z,4.00
2018-06-09T01:34:07.318Z,4.00
2018-06-09T01:35:07.297Z,4.00
2018-06-09T01:37:01.641Z,4.00
2018-06-09T01:38:01.661Z,4.00
2018-06-09T01:39:56.104Z,4.00
2018-06-09T01:40:56.033Z,4.00
2018-06-09T01:42:50.405Z,4.00
2018-06-09T01:43:50.408Z,8.00
2018-06-09T01:45:44.885Z,4.00
2018-06-09T01:46:44.797Z,4.00
2018-06-09T01:48:39.223Z,4.00
2018-06-09T01:49:39.170Z,4.00
2018-06-09T01:51:33.555Z,4.00
2018-06-09T01:52:33.555Z,8.00
2018-06-09T01:54:27.993Z,4.00
2018-06-09T01:55:27.946Z,4.00
2018-06-09T01:57:21.416Z,8.00
2018-06-09T01:58:21.369Z,4.00
2018-06-09T02:00:15.814Z,8.00
2018-06-09T02:01:15.752Z,8.00
2018-06-09T02:03:10.133Z,8.00
2018-06-09T02:04:10.126Z,8.00
2018-06-09T02:06:04.599Z,8.00
2018-06-09T02:07:04.509Z,8.00
2018-06-09T02:08:58.883Z,8.00
2018-06-09T02:09:58.881Z,8.00
2018-06-09T02:11:53.316Z,8.00
2018-06-09T02:12:53.265Z,8.00
2018-06-09T02:14:47.648Z,8.00
2018-06-09T02:15:47.654Z,8.00
2018-06-09T02:17:42.152Z,8.00
2018-06-09T02:18:42.033Z,8.00
2018-06-09T02:20:36.413Z,8.00
2018-06-09T02:21:36.413Z,8.00
2018-06-09T02:23:30.843Z,4.00
2018-06-09T02:24:30.797Z,4.00
2018-06-09T02:26:25.179Z,8.00
2018-06-09T02:27:25.180Z,8.00
2018-06-09T02:29:19.609Z,8.00
2018-06-09T02:30:19.562Z,8.00
2018-06-09T02:32:18.858Z,8.00
2018-06-09T02:33:18.858Z,8.00
2018-06-09T02:35:13.351Z,8.00
2018-06-09T02:36:13.233Z,4.00
2018-06-09T02:38:07.687Z,8.00
2018-06-09T02:39:07.617Z,8.00
2018-06-09T02:41:02.099Z,8.00
2018-06-09T02:42:01.999Z,12.00
2018-06-09T02:43:56.382Z,12.00
2018-06-09T02:44:56.381Z,12.00
2018-06-09T02:46:51.580Z,16.00
2018-06-09T02:47:50.762Z,20.00
2018-06-09T02:49:45.151Z,24.00
2018-06-09T02:50:45.275Z,24.00
2018-06-09T02:52:39.744Z,28.00
2018-06-09T02:53:39.529Z,32.00
2018-06-09T02:55:33.912Z,36.00
2018-06-09T02:56:33.910Z,40.00
2018-06-09T02:58:28.376Z,52.00
2018-06-09T02:59:28.292Z,56.00
2018-06-09T03:01:22.665Z,64.00
2018-06-09T03:02:22.666Z,64.00
2018-06-09T03:04:17.180Z,76.00
2018-06-09T03:05:17.049Z,80.00
2018-06-09T03:07:11.500Z,92.00
2018-06-09T03:08:11.434Z,92.00
2018-06-09T03:10:05.898Z,104.00
2018-06-09T03:11:05.925Z,112.00
2018-06-09T03:13:00.263Z,124.00
2018-06-09T03:14:00.200Z,132.00
2018-06-09T03:15:54.594Z,144.00
2018-06-09T03:16:54.588Z,152.00
2018-06-09T03:18:49.017Z,168.00
2018-06-09T03:19:48.968Z,180.00
2018-06-09T03:21:43.454Z,204.00
2018-06-09T03:22:43.363Z,216.00
2018-06-09T03:24:37.745Z,240.00
2018-06-09T03:25:37.745Z,252.00
2018-06-09T03:27:32.172Z,268.00
2018-06-09T03:28:32.127Z,280.00
2018-06-09T03:30:26.570Z,304.00
2018-06-09T03:31:26.512Z,320.00
2018-06-09T03:33:20.895Z,348.00
2018-06-09T03:34:20.895Z,360.00
2018-06-09T03:36:15.327Z,388.00
2018-06-09T03:37:15.270Z,404.00
2018-06-09T03:39:09.650Z,436.00
2018-06-09T03:40:09.651Z,448.00
2018-06-09T03:42:04.153Z,480.00
2018-06-09T03:43:04.071Z,496.00
2018-06-09T03:44:58.422Z,524.00
2018-06-09T03:45:58.423Z,544.00
2018-06-09T03:47:52.849Z,576.00
2018-06-09T03:48:52.822Z,588.00
2018-06-09T03:50:47.248Z,620.00
2018-06-09T03:51:47.174Z,632.00
2018-06-09T03:53:41.598Z,668.00
2018-06-09T03:54:41.553Z,684.00
2018-06-09T03:56:35.937Z,724.00
2018-06-09T03:57:35.934Z,740.00
2018-06-09T03:59:30.425Z,780.00
2018-06-09T04:00:30.319Z,804.00
2018-06-09T04:02:24.747Z,844.00
2018-06-09T04:03:24.700Z,860.00
2018-06-09T04:05:23.568Z,896.00
2018-06-09T04:06:23.204Z,912.00
2018-06-09T04:08:17.584Z,952.00
2018-06-09T04:09:17.583Z,972.00
2018-06-09T04:11:12.004Z,1016.00
2018-06-09T04:12:11.971Z,1040.00
2018-06-09T04:14:06.462Z,1104.00
2018-06-09T04:15:06.338Z,1132.00
2018-06-09T04:17:00.720Z,1212.00
2018-06-09T04:18:00.724Z,1284.00
2018-06-09T04:19:55.213Z,1476.00
2018-06-09T04:20:55.100Z,1564.00
2018-06-09T04:22:49.477Z,1676.00
2018-06-09T04:23:49.480Z,1704.00
2018-06-09T04:25:43.918Z,1708.00
2018-06-09T04:26:43.857Z,1708.00
2018-06-09T04:28:38.236Z,1748.00
2018-06-09T04:29:38.235Z,1780.00
2018-06-09T04:31:32.665Z,1836.00
2018-06-09T04:32:32.618Z,1840.00
2018-06-09T04:34:27.097Z,1864.00
2018-06-09T04:35:27.007Z,1840.00
2018-06-09T04:37:21.375Z,1748.00
2018-06-09T04:38:21.373Z,1376.00
2018-06-09T04:40:15.806Z,1492.00
2018-06-09T04:41:15.852Z,1912.00
2018-06-09T04:43:10.141Z,2156.00
2018-06-09T04:44:10.142Z,2104.00
2018-06-09T04:46:04.596Z,2324.00
2018-06-09T04:47:04.527Z,2560.00
2018-06-09T04:48:58.970Z,2852.00
2018-06-09T04:49:58.908Z,2988.00
2018-06-09T04:51:53.397Z,3140.00
2018-06-09T04:52:53.300Z,3204.00
2018-06-09T04:54:47.727Z,3300.00
2018-06-09T04:55:47.686Z,3344.00
2018-06-09T04:57:42.120Z,3392.00
2018-06-09T04:58:42.056Z,3444.00
2018-06-09T05:00:36.442Z,3520.00
2018-06-09T05:01:36.442Z,3612.00
2018-06-09T05:03:30.934Z,3780.00
2018-06-09T05:04:30.829Z,3856.00
2018-06-09T05:06:25.263Z,3932.00
2018-06-09T05:07:25.203Z,3976.00
2018-06-09T05:09:19.587Z,5508.00
2018-06-09T05:10:19.589Z,7944.00
2018-06-09T05:12:14.024Z,7120.00
2018-06-09T05:13:13.984Z,5512.00
2018-06-09T05:15:08.339Z,7436.00
2018-06-09T05:16:08.341Z,9424.00
2018-06-09T05:18:02.846Z,7052.00
2018-06-09T05:19:02.728Z,5656.00
2018-06-09T05:20:57.117Z,5352.00
2018-06-09T05:21:57.122Z,5788.00
2018-06-09T05:23:51.551Z,6092.00
2018-06-09T05:24:51.502Z,5240.00
2018-06-09T05:26:45.941Z,5964.00
2018-06-09T05:27:45.890Z,5396.00
2018-06-09T05:29:40.278Z,6160.00
2018-06-09T05:30:40.279Z,8732.00
2018-06-09T05:32:34.727Z,6032.00
2018-06-09T05:33:34.668Z,4088.00
2018-06-09T05:35:29.060Z,3600.00
2018-06-09T05:36:29.060Z,3328.00
2018-06-09T05:38:23.560Z,3412.00
2018-06-09T05:39:23.449Z,3628.00
2018-06-09T05:41:17.825Z,4700.00
2018-06-09T05:42:17.829Z,5020.00
2018-06-09T05:44:12.300Z,6540.00
2018-06-09T05:45:12.216Z,6824.00
2018-06-09T05:47:06.601Z,7196.00
2018-06-09T05:48:06.599Z,7300.00
2018-06-09T05:50:01.041Z,7300.00
2018-06-09T05:51:00.991Z,8024.00
2018-06-09T05:52:55.378Z,4960.00
2018-06-09T05:53:55.384Z,5384.00
2018-06-09T05:55:49.872Z,3960.00
2018-06-09T05:56:49.769Z,3636.00
2018-06-09T05:58:45.202Z,3292.00
2018-06-09T05:59:44.158Z,3120.00
2018-06-09T06:01:38.605Z,2828.00
2018-06-09T06:02:38.541Z,2704.00
2018-06-09T06:04:32.913Z,2524.00
2018-06-09T06:05:32.916Z,2472.00
2018-06-09T06:07:27.348Z,2424.00
2018-06-09T06:08:27.362Z,2400.00
2018-06-09T06:10:21.698Z,2384.00
2018-06-09T06:11:21.696Z,2380.00
2018-06-09T06:13:16.530Z,2516.00
2018-06-09T06:14:16.091Z,2460.00
2018-06-09T06:16:10.590Z,2552.00
2018-06-09T06:17:10.507Z,2604.00
2018-06-09T06:19:04.863Z,5440.00
2018-06-09T06:20:04.865Z,5968.00
2018-06-09T06:21:59.385Z,6104.00
2018-06-09T06:22:59.254Z,2968.00
2018-06-09T06:24:53.632Z,2788.00
2018-06-09T06:25:53.634Z,4816.00
2018-06-09T06:27:48.084Z,6396.00
2018-06-09T06:28:48.024Z,6572.00
2018-06-09T06:30:42.418Z,6636.00
2018-06-09T06:31:42.413Z,6004.00
2018-06-09T06:33:36.931Z,6560.00
2018-06-09T06:34:36.816Z,6512.00
2018-06-09T06:36:31.201Z,4900.00
2018-06-09T06:37:31.208Z,3128.00
2018-06-09T06:39:25.637Z,2784.00
2018-06-09T06:40:25.591Z,2728.00
2018-06-09T06:42:19.969Z,2600.00
2018-06-09T06:43:19.972Z,2572.00
2018-06-09T06:45:14.389Z,4020.00
2018-06-09T06:46:14.355Z,2744.00
2018-06-09T06:48:08.854Z,4520.00
2018-06-09T06:49:08.765Z,2492.00
2018-06-09T06:51:03.152Z,2412.00
2018-06-09T06:52:03.617Z,2624.00
2018-06-09T06:53:57.674Z,2784.00
2018-06-09T06:54:57.541Z,2744.00
2018-06-09T06:56:51.932Z,2964.00
2018-06-09T06:57:51.934Z,3872.00
2018-06-09T06:59:47.122Z,3784.00
2018-06-09T07:00:46.394Z,3072.00
2018-06-09T07:02:40.798Z,3732.00
2018-06-09T07:03:40.744Z,2772.00
2018-06-09T07:05:35.131Z,2456.00
2018-06-09T07:06:35.140Z,2348.00
2018-06-09T07:08:29.579Z,2332.00
2018-06-09T07:09:29.530Z,2324.00
2018-06-09T07:11:23.942Z,2396.00
2018-06-09T07:12:23.943Z,2448.00
2018-06-09T07:14:18.446Z,2600.00
2018-06-09T07:15:18.550Z,2624.00
2018-06-09T07:17:12.718Z,2732.00
2018-06-09T07:18:12.720Z,2804.00
2018-06-09T07:20:07.153Z,2928.00
2018-06-09T07:21:07.103Z,2892.00
2018-06-09T07:23:01.494Z,2784.00
2018-06-09T07:24:01.497Z,2744.00
2018-06-09T07:25:55.941Z,3064.00
2018-06-09T07:26:55.887Z,2956.00
2018-06-09T07:28:50.269Z,3048.00
2018-06-09T07:29:50.269Z,3328.00
2018-06-09T07:31:44.801Z,3204.00
2018-06-09T07:32:44.661Z,3416.00
2018-06-09T07:34:39.111Z,3464.00
2018-06-09T07:35:39.060Z,3456.00
2018-06-09T07:37:33.447Z,3440.00
2018-06-09T07:38:33.447Z,3408.00
2018-06-09T07:40:27.888Z,3364.00
2018-06-09T07:41:27.839Z,3348.00
2018-06-09T07:43:22.230Z,3140.00
2018-06-09T07:44:22.233Z,3204.00
2018-06-09T07:46:16.718Z,3272.00
2018-06-09T07:47:16.609Z,3204.00
2018-06-09T07:49:11.012Z,3192.00
2018-06-09T07:50:11.005Z,3244.00
2018-06-09T07:52:05.444Z,3324.00
2018-06-09T07:53:05.390Z,3352.00
2018-06-09T07:54:59.783Z,3176.00
2018-06-09T07:55:59.795Z,3068.00
2018-06-09T07:57:54.233Z,2840.00
2018-06-09T07:58:54.175Z,2736.00
2018-06-09T08:00:48.553Z,2644.00
2018-06-09T08:01:48.559Z,2576.00
2018-06-09T08:03:43.068Z,2452.00
2018-06-09T08:04:42.947Z,2384.00
2018-06-09T08:06:37.342Z,2288.00
2018-06-09T08:07:37.343Z,2248.00
2018-06-09T08:09:31.844Z,2236.00
2018-06-09T08:10:31.743Z,2236.00
2018-06-09T08:12:26.191Z,2264.00
2018-06-09T08:13:26.179Z,2340.00
2018-06-09T08:15:20.601Z,2496.00
2018-06-09T08:16:20.548Z,2556.00
2018-06-09T08:18:13.927Z,2648.00
2018-06-09T08:19:13.927Z,2692.00
2018-06-09T08:21:08.410Z,2780.00
2018-06-09T08:22:08.307Z,2832.00
2018-06-09T08:24:02.694Z,2932.00
2018-06-09T08:25:02.700Z,2968.00
2018-06-09T08:26:57.152Z,3028.00
2018-06-09T08:27:57.097Z,3088.00
2018-06-09T08:29:51.514Z,4088.00
2018-06-09T08:30:51.519Z,4116.00
2018-06-09T08:32:45.992Z,3864.00
2018-06-09T08:33:45.928Z,4512.00
2018-06-09T08:35:40.306Z,5164.00
2018-06-09T08:36:40.322Z,5216.00
2018-06-09T08:38:34.823Z,5212.00
2018-06-09T08:39:34.703Z,5232.00
2018-06-09T08:41:29.082Z,5320.00
2018-06-09T08:42:29.114Z,5356.00
2018-06-09T08:44:23.520Z,5416.00
2018-06-09T08:45:23.475Z,5480.00
2018-06-09T08:47:17.899Z,5492.00
2018-06-09T08:48:17.901Z,5536.00
2018-06-09T08:50:12.342Z,5644.00
2018-06-09T08:51:12.302Z,5288.00
2018-06-09T08:53:06.749Z,5048.00
2018-06-09T08:54:06.701Z,4120.00
2018-06-09T08:56:01.187Z,4020.00
2018-06-09T08:57:01.111Z,4992.00
2018-06-09T08:58:55.500Z,3312.00
2018-06-09T08:59:55.501Z,4044.00
2018-06-09T09:01:49.949Z,3792.00
2018-06-09T09:02:49.907Z,6552.00
2018-06-09T09:04:44.369Z,7228.00
2018-06-09T09:05:44.305Z,7072.00
2018-06-09T09:07:38.700Z,6172.00
2018-06-09T09:08:38.707Z,5764.00
2018-06-09T09:10:33.407Z,6948.00
2018-06-09T09:11:33.310Z,6980.00
2018-06-09T09:13:27.705Z,7196.00
2018-06-09T09:14:27.707Z,7512.00
2018-06-09T09:16:22.465Z,8100.00
2018-06-09T09:17:22.118Z,8436.00
2018-06-09T09:19:21.496Z,9364.00
2018-06-09T09:20:21.499Z,9984.00
2018-06-09T09:22:16.021Z,10848.00
2018-06-09T09:23:15.917Z,11196.00
2018-06-09T09:25:10.317Z,11916.00
2018-06-09T09:26:10.324Z,11888.00
2018-06-09T09:28:04.779Z,13620.00
2018-06-09T09:29:04.740Z,14148.00
2018-06-09T09:30:59.196Z,15280.00
2018-06-09T09:31:59.142Z,16384.00
2018-06-09T09:33:53.541Z,17952.00
2018-06-09T09:34:53.555Z,18336.00
2018-06-09T09:36:48.091Z,19936.00
2018-06-09T09:37:47.960Z,20544.00
2018-06-09T09:39:42.366Z,16128.00
2018-06-09T09:40:42.462Z,18528.00
2018-06-09T09:42:36.808Z,19904.00
2018-06-09T09:43:36.772Z,20832.00
2018-06-09T09:45:31.174Z,22112.00
2018-06-09T09:46:31.182Z,21664.00
2018-06-09T09:48:25.859Z,22112.00
2018-06-09T09:49:25.597Z,23136.00
2018-06-09T09:51:20.055Z,22688.00
2018-06-09T09:52:20.006Z,22368.00
2018-06-09T09:54:14.409Z,24896.00
2018-06-09T09:55:14.419Z,25248.00
2018-06-09T09:57:08.989Z,26176.00
2018-06-09T09:58:08.831Z,26688.00
2018-06-09T10:00:03.341Z,24320.00
2018-06-09T10:01:03.249Z,22336.00
2018-06-09T10:02:57.670Z,27072.00
2018-06-09T10:03:57.657Z,27264.00
2018-06-09T10:05:52.109Z,24320.00
2018-06-09T10:06:52.069Z,23424.00
2018-06-09T10:08:46.579Z,25152.00
2018-06-09T10:09:46.496Z,27008.00
2018-06-09T10:11:40.979Z,25632.00
2018-06-09T10:12:40.922Z,23680.00
2018-06-09T10:14:35.387Z,24896.00
2018-06-09T10:15:35.345Z,23872.00
2018-06-09T10:17:29.870Z,23072.00
2018-06-09T10:18:29.764Z,25952.00
2018-06-09T10:20:24.281Z,28544.00
2018-06-09T10:21:24.181Z,27488.00
2018-06-09T10:23:18.646Z,31136.00
2018-06-09T10:24:18.598Z,28864.00
2018-06-09T10:26:13.023Z,28064.00
2018-06-09T10:27:13.058Z,25152.00
2018-06-09T10:29:07.717Z,30080.00
2018-06-09T10:30:07.415Z,25696.00
2018-06-09T10:32:01.851Z,24224.00
2018-06-09T10:33:01.827Z,24224.00
2018-06-09T10:34:56.341Z,4900.00
2018-06-09T10:35:56.240Z,4616.00
2018-06-09T10:37:50.718Z,21152.00
2018-06-09T10:38:50.671Z,5064.00
2018-06-09T10:40:45.079Z,27040.00
2018-06-09T10:41:45.091Z,16672.00
2018-06-09T10:43:39.553Z,22816.00
2018-06-09T10:44:39.507Z,6820.00
2018-06-09T10:46:33.966Z,29024.00
2018-06-09T10:47:33.920Z,4572.00
2018-06-09T10:49:28.316Z,32160.00
2018-06-09T10:50:28.326Z,7180.00
2018-06-09T10:52:22.953Z,5376.00
2018-06-09T10:53:22.747Z,5204.00
2018-06-09T10:55:17.149Z,15904.00
2018-06-09T10:56:17.156Z,7196.00
2018-06-09T10:58:11.884Z,37632.00
2018-06-09T10:59:11.570Z,7172.00
2018-06-09T11:01:11.974Z,3884.00
2018-06-09T11:02:11.007Z,3512.00
2018-06-09T11:04:05.619Z,4008.00
2018-06-09T11:05:05.289Z,14144.00
2018-06-09T11:06:59.781Z,10072.00
2018-06-09T11:07:59.726Z,9324.00
2018-06-09T11:09:54.137Z,8128.00
2018-06-09T11:10:54.097Z,37344.00
2018-06-09T11:12:48.624Z,38048.00
2018-06-09T11:13:48.495Z,30336.00
2018-06-09T11:15:42.884Z,38528.00
2018-06-09T11:16:42.896Z,40096.00
2018-06-09T11:18:37.343Z,39296.00
2018-06-09T11:19:37.307Z,36640.00
2018-06-09T11:21:31.820Z,3984.00
2018-06-09T11:22:31.721Z,3816.00
2018-06-09T11:24:26.121Z,7848.00
2018-06-09T11:25:26.122Z,43360.00
2018-06-09T11:27:20.621Z,45504.00
2018-06-09T11:28:20.530Z,40224.00
2018-06-09T11:30:15.499Z,2996.00
2018-06-09T11:31:14.956Z,2684.00
2018-06-09T11:33:09.489Z,3044.00
2018-06-09T11:34:09.369Z,3980.00
2018-06-09T11:36:03.766Z,41152.00
2018-06-09T11:37:03.775Z,40032.00
2018-06-09T11:38:58.236Z,41280.00
2018-06-09T11:39:58.183Z,43552.00
2018-06-09T11:41:52.868Z,43168.00
2018-06-09T11:42:52.593Z,43200.00
2018-06-09T11:44:46.994Z,41248.00
2018-06-09T11:45:47.004Z,13728.00
2018-06-09T11:47:41.510Z,42656.00
2018-06-09T11:48:41.452Z,38784.00
2018-06-09T11:50:35.830Z,36736.00
2018-06-09T11:51:35.837Z,36736.00
2018-06-09T11:53:30.289Z,36480.00
2018-06-09T11:54:31.216Z,34304.00
2018-06-09T11:56:24.661Z,4256.00
2018-06-09T11:57:24.666Z,5612.00
2018-06-09T11:59:19.164Z,42464.00
2018-06-09T12:00:19.079Z,41824.00
2018-06-09T12:02:13.517Z,45344.00
2018-06-09T12:03:13.480Z,46144.00
2018-06-09T12:05:07.887Z,4492.00
2018-06-09T12:06:08.513Z,4756.00
2018-06-09T12:08:02.394Z,45888.00
2018-06-09T12:09:02.372Z,45536.00
2018-06-09T12:10:56.815Z,33088.00
2018-06-09T12:11:56.744Z,5220.00
2018-06-09T12:13:51.172Z,40320.00
2018-06-09T12:14:51.136Z,38880.00
2018-06-09T12:16:45.645Z,41376.00
2018-06-09T12:17:45.548Z,41280.00
2018-06-09T12:19:40.020Z,43104.00
2018-06-09T12:20:39.969Z,43456.00
2018-06-09T12:22:34.368Z,41216.00
2018-06-09T12:23:34.378Z,40192.00
2018-06-09T12:25:28.862Z,40480.00
2018-06-09T12:26:28.870Z,41600.00
2018-06-09T12:28:23.369Z,44960.00
2018-06-09T12:29:23.227Z,45312.00
2018-06-09T12:31:17.654Z,42464.00
2018-06-09T12:32:17.641Z,41408.00
2018-06-09T12:34:12.329Z,39008.00
2018-06-09T12:35:12.067Z,39136.00
2018-06-09T12:37:06.491Z,24512.00
2018-06-09T12:38:06.492Z,14208.00
2018-06-09T12:40:00.941Z,7156.00
2018-06-09T12:41:00.915Z,30144.00
2018-06-09T12:42:55.423Z,43040.00
2018-06-09T12:43:55.323Z,43840.00
2018-06-09T12:45:49.742Z,43712.00
2018-06-09T12:46:49.771Z,45728.00
2018-06-09T12:48:44.351Z,4168.00
2018-06-09T12:49:44.145Z,3632.00
2018-06-09T12:51:38.550Z,3568.00
2018-06-09T12:52:38.559Z,3660.00
2018-06-09T12:54:33.054Z,4576.00
2018-06-09T12:55:32.970Z,4036.00
2018-06-09T12:57:27.382Z,3728.00
2018-06-09T12:58:27.378Z,3488.00
2018-06-09T13:00:21.830Z,12296.00
2018-06-09T13:01:21.838Z,48416.00
2018-06-09T13:03:16.177Z,44000.00
2018-06-09T13:04:16.183Z,46656.00
2018-06-09T13:06:11.490Z,47264.00
2018-06-09T13:07:10.593Z,7812.00
2018-06-09T13:09:04.995Z,4276.00
2018-06-09T13:10:04.990Z,4604.00
2018-06-09T13:11:58.458Z,6124.00
2018-06-09T13:12:58.420Z,29248.00
2018-06-09T13:14:52.811Z,3316.00
2018-06-09T13:15:52.820Z,3200.00
2018-06-09T13:17:47.279Z,2804.00
2018-06-09T13:18:47.228Z,2724.00
2018-06-09T13:20:41.628Z,2784.00
2018-06-09T13:21:41.668Z,2864.00
2018-06-09T13:23:36.147Z,3060.00
2018-06-09T13:24:36.039Z,3132.00
2018-06-09T13:26:30.436Z,3396.00
2018-06-09T13:27:30.441Z,3692.00
2018-06-09T13:29:24.882Z,4608.00
2018-06-09T13:30:24.915Z,6656.00
2018-06-09T13:32:19.235Z,6452.00
2018-06-09T13:33:19.240Z,7124.00
2018-06-09T13:35:13.678Z,4412.00
2018-06-09T13:36:13.636Z,4276.00
2018-06-09T13:38:08.032Z,3956.00
2018-06-09T13:39:08.031Z,3996.00
2018-06-09T13:41:02.621Z,5424.00
2018-06-09T13:42:02.445Z,7292.00
2018-06-09T13:43:56.843Z,29856.00
2018-06-09T13:44:56.848Z,42336.00
2018-06-09T13:46:51.405Z,43200.00
2018-06-09T13:47:51.260Z,44384.00
2018-06-09T13:49:45.663Z,41344.00
2018-06-09T13:50:45.730Z,39488.00
2018-06-09T13:52:40.479Z,36096.00
2018-06-09T13:53:40.056Z,39200.00
2018-06-09T13:55:34.470Z,36384.00
2018-06-09T13:56:34.483Z,26080.00
2018-06-09T13:58:28.969Z,26656.00
2018-06-09T13:59:28.876Z,24000.00
2018-06-09T14:01:23.374Z,24736.00
2018-06-09T14:02:23.280Z,27616.00
2018-06-09T14:04:17.678Z,30336.00
2018-06-09T14:05:17.680Z,30400.00
2018-06-09T14:07:12.665Z,29728.00
2018-06-09T14:08:12.082Z,28960.00
2018-06-09T14:10:06.483Z,26688.00
2018-06-09T14:11:06.544Z,27840.00
2018-06-09T14:13:00.940Z,27232.00
2018-06-09T14:14:00.903Z,24992.00
2018-06-09T14:15:55.287Z,21440.00
2018-06-09T14:16:55.379Z,21152.00
2018-06-09T14:18:49.822Z,21920.00
2018-06-09T14:19:49.714Z,21632.00
2018-06-09T14:21:44.110Z,18432.00
2018-06-09T14:22:44.117Z,16192.00
2018-06-09T14:24:38.589Z,16128.00
2018-06-09T14:25:38.511Z,16480.00
2018-06-09T14:27:32.909Z,13976.00
2018-06-09T14:28:32.912Z,12776.00
2018-06-09T14:30:27.520Z,12576.00
2018-06-09T14:31:27.402Z,12080.00
2018-06-09T14:33:21.771Z,10792.00
2018-06-09T14:34:21.717Z,11292.00
2018-06-09T14:36:16.187Z,10112.00
2018-06-09T14:37:16.138Z,9768.00
2018-06-09T14:39:10.601Z,10200.00
2018-06-09T14:40:10.513Z,12892.00
2018-06-09T14:42:09.060Z,19488.00
2018-06-09T14:43:09.017Z,19264.00
2018-06-09T14:45:03.410Z,22784.00
2018-06-09T14:46:03.989Z,23840.00
2018-06-09T14:47:57.863Z,22560.00
2018-06-09T14:48:57.806Z,24000.00
2018-06-09T14:50:52.217Z,26400.00
2018-06-09T14:51:53.183Z,26432.00
2018-06-09T14:53:51.306Z,19424.00
2018-06-09T14:54:51.222Z,18944.00
2018-06-09T14:56:47.090Z,16608.00
2018-06-09T14:57:45.629Z,17088.00
2018-06-09T14:59:40.124Z,18112.00
2018-06-09T15:00:40.029Z,16224.00
2018-06-09T15:02:34.601Z,11888.00
2018-06-09T15:03:34.431Z,21024.00
2018-06-09T15:05:28.925Z,14220.00
2018-06-09T15:06:28.832Z,13872.00
2018-06-09T15:08:23.329Z,13984.00
2018-06-09T15:09:23.242Z,13540.00
2018-06-09T15:11:16.815Z,3908.00
2018-06-09T15:12:16.665Z,3516.00
2018-06-09T15:14:11.074Z,3412.00
2018-06-09T15:15:11.077Z,3836.00
2018-06-09T15:17:05.612Z,4048.00
2018-06-09T15:18:05.478Z,4040.00
2018-06-09T15:19:59.878Z,3772.00
2018-06-09T15:20:59.881Z,3684.00
2018-06-09T15:22:54.344Z,3676.00
2018-06-09T15:23:54.278Z,3548.00
2018-06-09T15:25:48.683Z,3484.00
2018-06-09T15:26:48.677Z,3448.00
2018-06-09T15:28:43.161Z,3432.00
2018-06-09T15:29:43.089Z,3312.00
2018-06-09T15:31:37.472Z,3252.00
2018-06-09T15:32:37.476Z,3244.00
2018-06-09T15:34:31.985Z,3188.00
2018-06-09T15:35:31.884Z,3136.00
2018-06-09T15:37:26.340Z,3008.00
2018-06-09T15:38:26.286Z,2948.00
2018-06-09T15:40:20.713Z,2944.00
2018-06-09T15:41:20.670Z,2956.00
2018-06-09T15:43:15.110Z,2992.00
2018-06-09T15:44:15.076Z,2988.00
2018-06-09T15:46:09.465Z,2984.00
2018-06-09T15:47:09.470Z,2980.00
2018-06-09T15:49:03.973Z,2944.00
2018-06-09T15:50:03.869Z,2928.00
2018-06-09T15:51:58.271Z,2892.00
2018-06-09T15:52:58.271Z,2880.00
2018-06-09T15:54:52.830Z,2828.00
2018-06-09T15:55:52.702Z,2812.00
2018-06-09T15:57:47.113Z,2800.00
2018-06-09T15:58:47.101Z,2804.00
2018-06-09T16:00:42.041Z,2760.00
2018-06-09T16:01:41.505Z,2736.00
2018-06-09T16:03:36.007Z,2700.00
2018-06-09T16:04:35.987Z,2704.00
2018-06-09T16:06:30.293Z,2724.00
2018-06-09T16:07:30.296Z,2772.00
2018-06-09T16:09:24.959Z,2788.00
2018-06-09T16:10:24.686Z,2836.00
2018-06-09T16:12:20.560Z,2752.00
2018-06-09T16:13:19.094Z,2748.00
2018-06-09T16:15:13.641Z,2688.00
2018-06-09T16:16:13.484Z,2684.00
2018-06-09T16:18:07.966Z,2716.00
2018-06-09T16:19:07.875Z,2764.00
2018-06-09T16:21:02.310Z,2764.00
2018-06-09T16:22:03.959Z,2764.00
2018-06-09T16:23:56.710Z,2748.00
2018-06-09T16:24:56.652Z,2740.00
2018-06-09T16:26:51.081Z,2760.00
2018-06-09T16:27:51.046Z,2796.00
2018-06-09T16:29:45.489Z,2840.00
2018-06-09T16:30:45.469Z,2824.00
2018-06-09T16:32:40.009Z,2788.00
2018-06-09T16:33:40.819Z,2768.00
2018-06-09T16:35:38.657Z,2740.00
2018-06-09T16:36:38.659Z,2736.00
2018-06-09T16:38:33.144Z,2708.00
2018-06-09T16:39:33.057Z,2724.00
2018-06-09T16:41:27.449Z,2716.00
2018-06-09T16:42:27.456Z,2688.00
2018-06-09T16:44:21.889Z,2612.00
2018-06-09T16:45:21.852Z,2560.00
2018-06-09T16:47:16.240Z,2488.00
2018-06-09T16:48:16.244Z,2440.00
2018-06-09T16:50:10.753Z,2368.00
2018-06-09T16:51:10.640Z,2340.00
2018-06-09T16:53:05.023Z,2276.00
2018-06-09T16:54:05.026Z,2248.00
2018-06-09T16:55:59.472Z,2216.00
2018-06-09T16:56:59.421Z,2196.00
2018-06-09T16:58:53.860Z,2112.00
2018-06-09T16:59:53.815Z,2076.00
2018-06-09T17:01:48.200Z,2032.00
2018-06-09T17:02:48.200Z,2016.00
2018-06-09T17:04:42.649Z,1996.00
2018-06-09T17:05:42.600Z,1988.00
2018-06-09T17:07:36.987Z,1968.00
2018-06-09T17:08:37.022Z,1964.00
2018-06-09T17:10:31.589Z,1916.00
2018-06-09T17:11:31.376Z,1892.00
2018-06-09T17:13:25.768Z,1840.00
2018-06-09T17:14:25.770Z,1812.00
2018-06-09T17:16:20.222Z,1772.00
2018-06-09T17:17:20.168Z,1752.00
2018-06-09T17:19:14.552Z,1708.00
2018-06-09T17:20:14.553Z,1684.00
2018-06-09T17:22:08.997Z,1624.00
2018-06-09T17:23:08.950Z,1592.00
2018-06-09T17:25:03.381Z,1552.00
2018-06-09T17:26:03.343Z,1528.00
2018-06-09T17:27:57.728Z,1492.00
2018-06-09T17:28:57.733Z,1472.00
2018-06-09T17:30:52.216Z,1456.00
2018-06-09T17:31:52.127Z,1440.00
2018-06-09T17:33:46.524Z,1392.00
2018-06-09T17:34:46.528Z,1380.00
2018-06-09T17:36:40.978Z,1348.00
2018-06-09T17:37:40.933Z,1332.00
2018-06-09T17:39:35.370Z,1304.00
2018-06-09T17:40:35.327Z,1292.00
2018-06-09T17:42:29.721Z,1264.00
2018-06-09T17:43:29.720Z,1252.00
2018-06-09T17:45:24.214Z,1236.00